sensor_id;sensor_type;location;lat;lon;timestamp;pressure;altitude;pressure_sealevel;temperature;humidity
75913;BME280;64592;52.168;21.040;2022-11-20T00:04:23;100349.38;;;-4.38;73.54
75913;BME280;64592;52.168;21.040;2022-11-20T00:09:25;100357.28;;;-4.41;73.37
75913;BME280;64592;52.168;21.040;2022-11-20T00:14:28;100353.88;;;-4.46;73.79
75913;BME280;64592;52.168;21.040;2022-11-20T00:19:29;100349.50;;;-4.48;73.33
75913;BME280;64592;52.168;21.040;2022-11-20T00:24:31;100340.81;;;-4.53;73.82
75913;BME280;64592;52.168;21.040;2022-11-20T00:29:34;100347.75;;;-4.49;74.29
75913;BME280;64592;52.168;21.040;2022-11-20T00:34:35;100340.75;;;-4.50;74.13
75913;BME280;64592;52.168;21.040;2022-11-20T00:39:37;100339.88;;;-4.51;73.62
75913;BME280;64592;52.168;21.040;2022-11-20T00:44:40;100335.47;;;-4.46;73.36
75913;BME280;64592;52.168;21.040;2022-11-20T00:49:41;100331.94;;;-4.46;73.17
75913;BME280;64592;52.168;21.040;2022-11-20T00:54:43;100328.44;;;-4.45;74.25
75913;BME280;64592;52.168;21.040;2022-11-20T00:59:46;100325.81;;;-4.45;73.90
75913;BME280;64592;52.168;21.040;2022-11-20T01:04:47;100317.84;;;-4.41;73.43
75913;BME280;64592;52.168;21.040;2022-11-20T01:09:49;100310.75;;;-4.37;73.48
75913;BME280;64592;52.168;21.040;2022-11-20T01:14:52;100310.69;;;-4.31;73.50
75913;BME280;64592;52.168;21.040;2022-11-20T01:19:53;100308.09;;;-4.36;73.50
75913;BME280;64592;52.168;21.040;2022-11-20T01:24:55;100297.56;;;-4.36;72.83
75913;BME280;64592;52.168;21.040;2022-11-20T01:29:57;100302.84;;;-4.37;72.91
75913;BME280;64592;52.168;21.040;2022-11-20T01:34:59;100290.63;;;-4.40;73.04
75913;BME280;64592;52.168;21.040;2022-11-20T01:40:01;100295.91;;;-4.41;73.88
75913;BME280;64592;52.168;21.040;2022-11-20T01:50:39;100293.53;;;-4.56;74.34
75913;BME280;64592;52.168;21.040;2022-11-20T01:55:47;100291.06;;;-4.67;75.53
75913;BME280;64592;52.168;21.040;2022-11-20T02:00:50;100284.09;;;-4.71;75.76
75913;BME280;64592;52.168;21.040;2022-11-20T02:05:56;100283.31;;;-4.75;76.38
75913;BME280;64592;52.168;21.040;2022-11-20T02:10:59;100282.22;;;-4.63;76.70
75913;BME280;64592;52.168;21.040;2022-11-20T02:16:00;100284.78;;;-4.58;76.83
75913;BME280;64592;52.168;21.040;2022-11-20T02:21:07;100278.53;;;-4.51;76.54
75913;BME280;64592;52.168;21.040;2022-11-20T02:26:13;100280.25;;;-4.49;76.52
75913;BME280;64592;52.168;21.040;2022-11-20T02:31:17;100284.63;;;-4.46;76.40
75913;BME280;64592;52.168;21.040;2022-11-20T02:36:18;100286.28;;;-4.41;76.63
75913;BME280;64592;52.168;21.040;2022-11-20T02:41:21;100294.06;;;-4.36;76.87
75913;BME280;64592;52.168;21.040;2022-11-20T02:46:23;100286.22;;;-4.38;76.21
75913;BME280;64592;52.168;21.040;2022-11-20T02:51:24;100294.13;;;-4.38;77.31
75913;BME280;64592;52.168;21.040;2022-11-20T02:56:27;100292.28;;;-4.34;77.50
75913;BME280;64592;52.168;21.040;2022-11-20T03:01:29;100291.41;;;-4.33;76.58
75913;BME280;64592;52.168;21.040;2022-11-20T03:06:31;100287.06;;;-4.36;77.15
75913;BME280;64592;52.168;21.040;2022-11-20T03:11:34;100288.75;;;-4.30;77.33
75913;BME280;64592;52.168;21.040;2022-11-20T03:16:36;100294.00;;;-4.30;76.95
75913;BME280;64592;52.168;21.040;2022-11-20T03:21:37;100284.28;;;-4.28;76.69
75913;BME280;64592;52.168;21.040;2022-11-20T03:26:40;100284.38;;;-4.31;77.47
75913;BME280;64592;52.168;21.040;2022-11-20T03:31:42;100280.91;;;-4.36;77.20
75913;BME280;64592;52.168;21.040;2022-11-20T03:36:44;100270.50;;;-4.42;77.97
75913;BME280;64592;52.168;21.040;2022-11-20T03:41:47;100274.84;;;-4.40;77.90
75913;BME280;64592;52.168;21.040;2022-11-20T03:46:48;100266.97;;;-4.41;77.79
75913;BME280;64592;52.168;21.040;2022-11-20T03:51:50;100257.38;;;-4.44;78.45
75913;BME280;64592;52.168;21.040;2022-11-20T03:56:53;100272.28;;;-4.44;78.45
75913;BME280;64592;52.168;21.040;2022-11-20T04:01:54;100273.25;;;-4.50;78.32
75913;BME280;64592;52.168;21.040;2022-11-20T04:06:56;100272.50;;;-4.56;78.83
75913;BME280;64592;52.168;21.040;2022-11-20T04:11:59;100265.69;;;-4.70;78.52
75913;BME280;64592;52.168;21.040;2022-11-20T04:17:00;100271.06;;;-4.79;79.34
75913;BME280;64592;52.168;21.040;2022-11-20T04:22:02;100264.16;;;-4.84;78.98
75913;BME280;64592;52.168;21.040;2022-11-20T04:27:05;100260.69;;;-4.88;79.67
75913;BME280;64592;52.168;21.040;2022-11-20T04:32:06;100263.31;;;-4.88;79.30
75913;BME280;64592;52.168;21.040;2022-11-20T04:37:08;100260.75;;;-4.91;79.51
75913;BME280;64592;52.168;21.040;2022-11-20T04:42:11;100247.72;;;-4.97;78.86
75913;BME280;64592;52.168;21.040;2022-11-20T04:47:31;100253.88;;;-5.01;79.04
75913;BME280;64592;52.168;21.040;2022-11-20T04:52:32;100239.94;;;-5.06;78.74
75913;BME280;64592;52.168;21.040;2022-11-20T04:57:35;100243.47;;;-5.07;78.72
75913;BME280;64592;52.168;21.040;2022-11-20T05:02:37;100238.31;;;-5.15;78.73
75913;BME280;64592;52.168;21.040;2022-11-20T05:07:38;100240.97;;;-5.18;78.48
75913;BME280;64592;52.168;21.040;2022-11-20T05:12:41;100241.88;;;-5.19;79.63
75913;BME280;64592;52.168;21.040;2022-11-20T05:17:47;100241.94;;;-5.23;79.19
75913;BME280;64592;52.168;21.040;2022-11-20T05:22:48;100240.25;;;-5.27;79.29
75913;BME280;64592;52.168;21.040;2022-11-20T05:27:51;100242.88;;;-5.29;79.18
75913;BME280;64592;52.168;21.040;2022-11-20T05:32:52;100240.25;;;-5.27;79.43
75913;BME280;64592;52.168;21.040;2022-11-20T05:37:54;100237.63;;;-5.29;79.52
75913;BME280;64592;52.168;21.040;2022-11-20T05:42:57;100226.28;;;-5.32;79.23
75913;BME280;64592;52.168;21.040;2022-11-20T05:47:59;100234.25;;;-5.38;79.68
75913;BME280;64592;52.168;21.040;2022-11-20T05:53:01;100235.13;;;-5.39;79.34
75913;BME280;64592;52.168;21.040;2022-11-20T05:58:04;100235.13;;;-5.36;79.27
75913;BME280;64592;52.168;21.040;2022-11-20T06:03:06;100225.47;;;-5.34;79.91
75913;BME280;64592;52.168;21.040;2022-11-20T06:08:08;100223.75;;;-5.38;79.90
75913;BME280;64592;52.168;21.040;2022-11-20T06:13:11;100221.19;;;-5.41;79.82
75913;BME280;64592;52.168;21.040;2022-11-20T06:18:12;100217.69;;;-5.43;80.03
75913;BME280;64592;52.168;21.040;2022-11-20T06:23:14;100219.38;;;-5.38;79.41
75913;BME280;64592;52.168;21.040;2022-11-20T06:28:17;100216.66;;;-5.33;79.60
75913;BME280;64592;52.168;21.040;2022-11-20T06:33:18;100210.59;;;-5.34;79.73
75913;BME280;64592;52.168;21.040;2022-11-20T06:38:20;100215.75;;;-5.29;79.73
75913;BME280;64592;52.168;21.040;2022-11-20T06:43:24;100220.97;;;-5.26;79.28
75913;BME280;64592;52.168;21.040;2022-11-20T06:48:26;100201.66;;;-5.22;78.82
75913;BME280;64592;52.168;21.040;2022-11-20T06:53:28;100221.69;;;-5.15;78.65
75913;BME280;64592;52.168;21.040;2022-11-20T06:58:32;100210.22;;;-5.11;78.73
75913;BME280;64592;52.168;21.040;2022-11-20T07:03:34;100216.34;;;-5.11;78.41
75913;BME280;64592;52.168;21.040;2022-11-20T07:08:36;100212.81;;;-5.06;78.33
75913;BME280;64592;52.168;21.040;2022-11-20T07:13:39;100206.56;;;-4.98;78.52
75913;BME280;64592;52.168;21.040;2022-11-20T07:18:40;100188.91;;;-4.90;77.86
75913;BME280;64592;52.168;21.040;2022-11-20T07:23:42;100196.63;;;-4.81;78.70
75913;BME280;64592;52.168;21.040;2022-11-20T07:28:45;100183.41;;;-4.75;78.52
75913;BME280;64592;52.168;21.040;2022-11-20T07:33:46;100196.44;;;-4.67;78.57
75913;BME280;64592;52.168;21.040;2022-11-20T07:38:48;100183.97;;;-4.56;77.78
75913;BME280;64592;52.168;21.040;2022-11-20T07:43:51;100194.34;;;-4.48;77.21
75913;BME280;64592;52.168;21.040;2022-11-20T07:48:53;100190.69;;;-4.40;77.60
75913;BME280;64592;52.168;21.040;2022-11-20T07:53:54;100190.56;;;-4.32;77.32
75913;BME280;64592;52.168;21.040;2022-11-20T07:58:57;100185.16;;;-4.24;77.21
75913;BME280;64592;52.168;21.040;2022-11-20T08:03:59;100184.16;;;-4.17;77.19
75913;BME280;64592;52.168;21.040;2022-11-20T08:09:00;100185.75;;;-4.09;76.49
75913;BME280;64592;52.168;21.040;2022-11-20T08:14:03;100180.34;;;-4.03;76.61
75913;BME280;64592;52.168;21.040;2022-11-20T08:19:15;100174.19;;;-4.02;76.45
75913;BME280;64592;52.168;21.040;2022-11-20T08:24:17;100174.06;;;-3.96;77.08
75913;BME280;64592;52.168;21.040;2022-11-20T08:29:20;100173.09;;;-3.92;77.42
75913;BME280;64592;52.168;21.040;2022-11-20T08:34:21;100167.59;;;-3.79;76.90
75913;BME280;64592;52.168;21.040;2022-11-20T08:39:23;100156.03;;;-3.71;76.72
75913;BME280;64592;52.168;21.040;2022-11-20T08:44:26;100160.16;;;-3.59;76.89
75913;BME280;64592;52.168;21.040;2022-11-20T08:49:27;100161.63;;;-3.47;76.72
75913;BME280;64592;52.168;21.040;2022-11-20T08:54:29;100147.44;;;-3.40;76.15
75913;BME280;64592;52.168;21.040;2022-11-20T08:59:32;100149.78;;;-3.27;76.09
75913;BME280;64592;52.168;21.040;2022-11-20T09:04:33;100143.34;;;-3.15;76.47
75913;BME280;64592;52.168;21.040;2022-11-20T09:09:35;100136.91;;;-3.03;75.98
75913;BME280;64592;52.168;21.040;2022-11-20T09:14:38;100127.13;;;-2.98;75.82
75913;BME280;64592;52.168;21.040;2022-11-20T09:19:39;100116.41;;;-2.91;76.89
75913;BME280;64592;52.168;21.040;2022-11-20T09:24:41;100118.00;;;-2.84;76.25
75913;BME280;64592;52.168;21.040;2022-11-20T09:29:44;100112.53;;;-2.76;76.68
75913;BME280;64592;52.168;21.040;2022-11-20T09:34:46;100108.81;;;-2.69;75.79
75913;BME280;64592;52.168;21.040;2022-11-20T09:39:47;100097.16;;;-2.60;76.22
75913;BME280;64592;52.168;21.040;2022-11-20T09:45:02;100101.25;;;-2.49;76.72
75913;BME280;64592;52.168;21.040;2022-11-20T09:50:18;100098.38;;;-2.40;76.07
75913;BME280;64592;52.168;21.040;2022-11-20T09:55:21;100096.38;;;-2.31;75.84
75913;BME280;64592;52.168;21.040;2022-11-20T10:00:24;100109.22;;;-2.19;75.43
75913;BME280;64592;52.168;21.040;2022-11-20T10:05:33;100113.34;;;-2.09;75.76
75913;BME280;64592;52.168;21.040;2022-11-20T10:10:42;100105.97;;;-1.98;75.46
75913;BME280;64592;52.168;21.040;2022-11-20T10:15:54;100090.78;;;-1.90;75.80
75913;BME280;64592;52.168;21.040;2022-11-20T10:21:07;100079.13;;;-1.83;75.21
75913;BME280;64592;52.168;21.040;2022-11-20T10:26:17;100073.53;;;-1.72;74.64
75913;BME280;64592;52.168;21.040;2022-11-20T10:31:28;100067.97;;;-1.63;75.02
75913;BME280;64592;52.168;21.040;2022-11-20T10:36:34;100069.44;;;-1.54;75.39
75913;BME280;64592;52.168;21.040;2022-11-20T10:41:41;100061.34;;;-1.48;74.64
75913;BME280;64592;52.168;21.040;2022-11-20T10:46:45;100066.34;;;-1.39;74.23
75913;BME280;64592;52.168;21.040;2022-11-20T10:51:57;100053.75;;;-1.31;73.45
75913;BME280;64592;52.168;21.040;2022-11-20T10:57:10;100055.19;;;-1.21;73.94
75913;BME280;64592;52.168;21.040;2022-11-20T11:02:20;100057.66;;;-1.17;73.12
75913;BME280;64592;52.168;21.040;2022-11-20T11:07:25;100061.78;;;-1.08;73.92
75913;BME280;64592;52.168;21.040;2022-11-20T11:12:29;100051.75;;;-0.97;72.95
75913;BME280;64592;52.168;21.040;2022-11-20T11:17:33;100055.03;;;-0.90;72.98
75913;BME280;64592;52.168;21.040;2022-11-20T11:22:43;100052.00;;;-0.80;73.05
75913;BME280;64592;52.168;21.040;2022-11-20T11:27:46;100049.91;;;-0.70;72.26
75913;BME280;64592;52.168;21.040;2022-11-20T11:32:50;100050.25;;;-0.54;71.45
75913;BME280;64592;52.168;21.040;2022-11-20T11:37:54;100044.47;;;-0.41;71.02
75913;BME280;64592;52.168;21.040;2022-11-20T11:42:58;100049.22;;;-0.25;69.96
75913;BME280;64592;52.168;21.040;2022-11-20T11:48:03;100036.03;;;-0.04;69.55
75913;BME280;64592;52.168;21.040;2022-11-20T11:53:09;100040.72;;;0.13;68.55
75913;BME280;64592;52.168;21.040;2022-11-20T11:58:22;100017.56;;;0.40;67.94
75913;BME280;64592;52.168;21.040;2022-11-20T12:03:35;100019.78;;;0.72;66.22
75913;BME280;64592;52.168;21.040;2022-11-20T12:08:43;100014.75;;;1.08;65.67
75913;BME280;64592;52.168;21.040;2022-11-20T12:13:50;100009.50;;;1.47;63.95
75913;BME280;64592;52.168;21.040;2022-11-20T12:18:56;99995.78;;;1.77;62.16
75913;BME280;64592;52.168;21.040;2022-11-20T12:24:22;99980.44;;;2.02;61.92
75913;BME280;64592;52.168;21.040;2022-11-20T12:29:39;99989.97;;;2.25;60.92
75913;BME280;64592;52.168;21.040;2022-11-20T12:34:51;99984.91;;;2.20;60.78
75913;BME280;64592;52.168;21.040;2022-11-20T12:39:56;99977.25;;;2.31;60.36
75913;BME280;64592;52.168;21.040;2022-11-20T12:45:14;99974.75;;;2.28;59.04
75913;BME280;64592;52.168;21.040;2022-11-20T12:50:28;99978.84;;;2.36;58.85
75913;BME280;64592;52.168;21.040;2022-11-20T12:55:40;99974.47;;;2.34;62.67
75913;BME280;64592;52.168;21.040;2022-11-20T13:00:49;99969.94;;;2.18;64.11
75913;BME280;64592;52.168;21.040;2022-11-20T13:05:59;99965.50;;;2.00;64.75
75913;BME280;64592;52.168;21.040;2022-11-20T13:11:09;99959.53;;;1.76;66.22
75913;BME280;64592;52.168;21.040;2022-11-20T13:16:19;99953.81;;;1.65;66.21
75913;BME280;64592;52.168;21.040;2022-11-20T13:21:37;99942.38;;;1.44;67.01
75913;BME280;64592;52.168;21.040;2022-11-20T13:26:38;99944.22;;;1.23;68.41
75913;BME280;64592;52.168;21.040;2022-11-20T13:31:44;99937.84;;;1.07;68.26
75913;BME280;64592;52.168;21.040;2022-11-20T13:36:52;99931.63;;;0.88;68.95
75913;BME280;64592;52.168;21.040;2022-11-20T13:41:55;99928.81;;;0.70;69.74
75913;BME280;64592;52.168;21.040;2022-11-20T13:46:57;99933.56;;;0.62;70.51
75913;BME280;64592;52.168;21.040;2022-11-20T13:52:26;99922.00;;;0.43;70.49
75913;BME280;64592;52.168;21.040;2022-11-20T13:57:59;99911.28;;;0.24;71.70
75913;BME280;64592;52.168;21.040;2022-11-20T14:03:09;99917.94;;;0.13;72.52
75913;BME280;64592;52.168;21.040;2022-11-20T14:08:24;99908.88;;;-0.04;72.50
75913;BME280;64592;52.168;21.040;2022-11-20T14:13:26;99915.44;;;-0.14;73.61
75913;BME280;64592;52.168;21.040;2022-11-20T14:18:28;99907.75;;;-0.20;73.93
75913;BME280;64592;52.168;21.040;2022-11-20T14:23:31;99903.66;;;-0.28;75.00
75913;BME280;64592;52.168;21.040;2022-11-20T14:28:32;99908.63;;;-0.43;75.54
75913;BME280;64592;52.168;21.040;2022-11-20T14:33:34;99900.25;;;-0.54;76.04
75913;BME280;64592;52.168;21.040;2022-11-20T14:38:37;99899.63;;;-0.60;76.56
75913;BME280;64592;52.168;21.040;2022-11-20T14:43:45;99893.81;;;-0.70;77.14
75913;BME280;64592;52.168;21.040;2022-11-20T14:48:49;99892.31;;;-0.77;77.93
75913;BME280;64592;52.168;21.040;2022-11-20T14:53:53;99889.03;;;-0.84;78.25
75913;BME280;64592;52.168;21.040;2022-11-20T14:58:56;99887.34;;;-0.86;77.76
75913;BME280;64592;52.168;21.040;2022-11-20T15:04:00;99885.84;;;-0.93;77.62
75913;BME280;64592;52.168;21.040;2022-11-20T15:09:04;99892.31;;;-1.02;77.55
75913;BME280;64592;52.168;21.040;2022-11-20T15:14:06;99889.00;;;-1.07;78.44
75913;BME280;64592;52.168;21.040;2022-11-20T15:19:09;99882.19;;;-1.14;78.36
75913;BME280;64592;52.168;21.040;2022-11-20T15:24:18;99876.22;;;-1.19;79.22
75913;BME280;64592;52.168;21.040;2022-11-20T15:29:21;99891.34;;;-1.24;78.40
75913;BME280;64592;52.168;21.040;2022-11-20T15:34:26;99889.84;;;-1.31;79.76
75913;BME280;64592;52.168;21.040;2022-11-20T15:39:30;99888.25;;;-1.35;78.95
75913;BME280;64592;52.168;21.040;2022-11-20T15:44:31;99887.50;;;-1.40;79.57
75913;BME280;64592;52.168;21.040;2022-11-20T15:49:33;99889.50;;;-1.47;79.39
75913;BME280;64592;52.168;21.040;2022-11-20T15:54:35;99878.28;;;-1.53;79.18
75913;BME280;64592;52.168;21.040;2022-11-20T15:59:37;99876.75;;;-1.61;79.70
75913;BME280;64592;52.168;21.040;2022-11-20T16:04:41;99884.09;;;-1.69;79.51
75913;BME280;64592;52.168;21.040;2022-11-20T16:09:44;99883.34;;;-1.72;80.25
75913;BME280;64592;52.168;21.040;2022-11-20T16:14:45;99880.03;;;-1.79;80.98
75913;BME280;64592;52.168;21.040;2022-11-20T16:20:05;99870.47;;;-1.83;80.70
75913;BME280;64592;52.168;21.040;2022-11-20T16:25:08;99881.25;;;-1.89;81.24
75913;BME280;64592;52.168;21.040;2022-11-20T16:30:10;99880.41;;;-1.91;80.56
75913;BME280;64592;52.168;21.040;2022-11-20T16:35:12;99879.63;;;-1.93;80.21
75913;BME280;64592;52.168;21.040;2022-11-20T16:40:15;99883.22;;;-1.96;80.55
75913;BME280;64592;52.168;21.040;2022-11-20T16:45:17;99868.38;;;-2.00;81.96
75913;BME280;64592;52.168;21.040;2022-11-20T16:50:19;99881.75;;;-2.04;81.00
75913;BME280;64592;52.168;21.040;2022-11-20T16:55:22;99874.72;;;-2.05;81.75
75913;BME280;64592;52.168;21.040;2022-11-20T17:00:24;99880.81;;;-2.03;81.02
75913;BME280;64592;52.168;21.040;2022-11-20T17:05:26;99869.44;;;-2.05;82.34
75913;BME280;64592;52.168;21.040;2022-11-20T17:10:31;99871.13;;;-2.03;82.07
75913;BME280;64592;52.168;21.040;2022-11-20T17:15:32;99868.38;;;-2.00;81.78
75913;BME280;64592;52.168;21.040;2022-11-20T17:20:34;99866.06;;;-2.09;81.82
75913;BME280;64592;52.168;21.040;2022-11-20T17:25:36;99864.38;;;-2.11;81.63
75913;BME280;64592;52.168;21.040;2022-11-20T17:30:38;99862.84;;;-2.18;82.63
75913;BME280;64592;52.168;21.040;2022-11-20T17:35:40;99862.06;;;-2.22;81.96
75913;BME280;64592;52.168;21.040;2022-11-20T17:40:42;99851.69;;;-2.28;82.82
75913;BME280;64592;52.168;21.040;2022-11-20T17:45:45;99849.16;;;-2.31;82.82
75913;BME280;64592;52.168;21.040;2022-11-20T17:50:46;99822.91;;;-2.36;82.11
75913;BME280;64592;52.168;21.040;2022-11-20T17:55:55;99822.19;;;-2.41;83.10
75913;BME280;64592;52.168;21.040;2022-11-20T18:01:14;99805.66;;;-2.46;82.46
75913;BME280;64592;52.168;21.040;2022-11-20T18:06:18;99802.94;;;-2.44;81.99
75913;BME280;64592;52.168;21.040;2022-11-20T18:11:23;99804.00;;;-2.50;82.64
75913;BME280;64592;52.168;21.040;2022-11-20T18:16:25;99797.97;;;-2.53;82.49
75913;BME280;64592;52.168;21.040;2022-11-20T18:21:28;99793.69;;;-2.57;82.71
75913;BME280;64592;52.168;21.040;2022-11-20T18:26:31;99787.72;;;-2.62;82.19
75913;BME280;64592;52.168;21.040;2022-11-20T18:31:33;99790.50;;;-2.67;83.26
75913;BME280;64592;52.168;21.040;2022-11-20T18:36:35;99788.91;;;-2.72;82.42
75913;BME280;64592;52.168;21.040;2022-11-20T18:41:38;99786.47;;;-2.79;82.53
75913;BME280;64592;52.168;21.040;2022-11-20T18:46:57;99789.25;;;-2.83;83.29
75913;BME280;64592;52.168;21.040;2022-11-20T18:51:59;99784.91;;;-2.86;83.34
75913;BME280;64592;52.168;21.040;2022-11-20T18:57:02;99785.78;;;-2.85;83.38
75913;BME280;64592;52.168;21.040;2022-11-20T19:02:03;99788.56;;;-2.90;82.44
75913;BME280;64592;52.168;21.040;2022-11-20T19:07:06;99785.97;;;-2.91;83.55
75913;BME280;64592;52.168;21.040;2022-11-20T19:12:11;99785.19;;;-2.95;83.51
75913;BME280;64592;52.168;21.040;2022-11-20T19:17:12;99759.88;;;-3.00;83.85
75913;BME280;64592;52.168;21.040;2022-11-20T19:22:14;99762.47;;;-2.99;83.18
75913;BME280;64592;52.168;21.040;2022-11-20T19:27:17;99762.38;;;-2.96;82.79
75913;BME280;64592;52.168;21.040;2022-11-20T19:32:18;99756.22;;;-2.96;83.51
75913;BME280;64592;52.168;21.040;2022-11-20T19:37:20;99757.06;;;-2.94;83.84
75913;BME280;64592;52.168;21.040;2022-11-20T19:42:23;99749.94;;;-2.91;83.58
75913;BME280;64592;52.168;21.040;2022-11-20T19:47:24;99745.38;;;-2.86;83.70
75913;BME280;64592;52.168;21.040;2022-11-20T19:52:26;99731.25;;;-2.83;82.42
75913;BME280;64592;52.168;21.040;2022-11-20T19:57:29;99738.38;;;-2.87;83.77
75913;BME280;64592;52.168;21.040;2022-11-20T20:02:30;99735.78;;;-2.88;83.69
75913;BME280;64592;52.168;21.040;2022-11-20T20:07:32;99732.28;;;-2.89;83.27
75913;BME280;64592;52.168;21.040;2022-11-20T20:12:34;99735.84;;;-2.90;84.04
75913;BME280;64592;52.168;21.040;2022-11-20T20:17:36;99731.44;;;-2.89;83.83
75913;BME280;64592;52.168;21.040;2022-11-20T20:22:37;99725.19;;;-2.87;83.92
75913;BME280;64592;52.168;21.040;2022-11-20T20:27:40;99730.34;;;-2.82;83.69
75913;BME280;64592;52.168;21.040;2022-11-20T20:32:42;99724.91;;;-2.78;84.55
75913;BME280;64592;52.168;21.040;2022-11-20T20:37:43;99730.09;;;-2.75;84.14
75913;BME280;64592;52.168;21.040;2022-11-20T20:42:46;99722.97;;;-2.72;84.46
75913;BME280;64592;52.168;21.040;2022-11-20T20:47:48;99723.63;;;-2.66;84.39
75913;BME280;64592;52.168;21.040;2022-11-20T20:52:49;99727.88;;;-2.60;83.83
75913;BME280;64592;52.168;21.040;2022-11-20T20:57:52;99725.91;;;-2.54;84.29
75913;BME280;64592;52.168;21.040;2022-11-20T21:02:54;99717.00;;;-2.51;83.67
75913;BME280;64592;52.168;21.040;2022-11-20T21:07:55;99724.78;;;-2.47;84.36
75913;BME280;64592;52.168;21.040;2022-11-20T21:13:15;99716.88;;;-2.47;83.46
75913;BME280;64592;52.168;21.040;2022-11-20T21:18:18;99712.41;;;-2.45;84.02
75913;BME280;64592;52.168;21.040;2022-11-20T21:23:20;99715.69;;;-2.38;83.78
75913;BME280;64592;52.168;21.040;2022-11-20T21:28:23;99722.75;;;-2.39;84.27
75913;BME280;64592;52.168;21.040;2022-11-20T21:33:25;99710.31;;;-2.35;84.29
75913;BME280;64592;52.168;21.040;2022-11-20T21:38:26;99715.59;;;-2.35;83.87
75913;BME280;64592;52.168;21.040;2022-11-20T21:43:29;99712.84;;;-2.32;83.20
75913;BME280;64592;52.168;21.040;2022-11-20T21:48:32;99708.44;;;-2.31;83.94
75913;BME280;64592;52.168;21.040;2022-11-20T21:53:34;99708.53;;;-2.35;83.53
75913;BME280;64592;52.168;21.040;2022-11-20T21:58:39;99704.13;;;-2.34;83.81
75913;BME280;64592;52.168;21.040;2022-11-20T22:03:41;99716.41;;;-2.33;83.24
75913;BME280;64592;52.168;21.040;2022-11-20T22:08:43;99709.34;;;-2.32;83.76
75913;BME280;64592;52.168;21.040;2022-11-20T22:13:46;99714.66;;;-2.34;83.75
75913;BME280;64592;52.168;21.040;2022-11-20T22:19:05;99719.00;;;-2.31;83.64
75913;BME280;64592;52.168;21.040;2022-11-20T22:24:07;99715.50;;;-2.32;84.33
75913;BME280;64592;52.168;21.040;2022-11-20T22:29:14;99709.44;;;-2.36;84.43
75913;BME280;64592;52.168;21.040;2022-11-20T22:34:16;99694.50;;;-2.37;83.63
75913;BME280;64592;52.168;21.040;2022-11-20T22:39:18;99691.97;;;-2.38;83.34
75913;BME280;64592;52.168;21.040;2022-11-20T22:44:23;99698.22;;;-2.42;83.88
75913;BME280;64592;52.168;21.040;2022-11-20T22:49:24;99700.22;;;-2.49;84.79
75913;BME280;64592;52.168;21.040;2022-11-20T22:54:26;99694.06;;;-2.49;83.80
75913;BME280;64592;52.168;21.040;2022-11-20T22:59:29;99693.41;;;-2.56;84.58
75913;BME280;64592;52.168;21.040;2022-11-20T23:04:30;99703.22;;;-2.59;84.79
75913;BME280;64592;52.168;21.040;2022-11-20T23:09:32;99713.00;;;-2.63;84.47
75913;BME280;64592;52.168;21.040;2022-11-20T23:14:35;99708.78;;;-2.68;85.04
75913;BME280;64592;52.168;21.040;2022-11-20T23:19:36;99705.34;;;-2.70;85.10
75913;BME280;64592;52.168;21.040;2022-11-20T23:24:38;99713.53;;;-2.80;85.41
75913;BME280;64592;52.168;21.040;2022-11-20T23:29:40;99713.69;;;-2.84;85.56
75913;BME280;64592;52.168;21.040;2022-11-20T23:34:42;99713.78;;;-2.87;84.60
75913;BME280;64592;52.168;21.040;2022-11-20T23:39:44;99716.53;;;-2.90;84.77
75913;BME280;64592;52.168;21.040;2022-11-20T23:44:46;99708.69;;;-2.93;84.86
75913;BME280;64592;52.168;21.040;2022-11-20T23:49:48;99714.06;;;-2.96;85.74
75913;BME280;64592;52.168;21.040;2022-11-20T23:54:49;99713.31;;;-3.00;85.27
75913;BME280;64592;52.168;21.040;2022-11-20T23:59:52;99711.53;;;-2.99;84.86
